Oslo Venture — VRNT9 — position and weather

sailwx.info

Track history (hours):
 
Tides and Currents Weather Stations Pressure Air Temp Water Temp Dewpoint Dewpoint Depression Visibility Wind Speed Wind Dir Waves Ship Positions

Oslo Venture

Last reported at 2018-Jun-08 10:27 UTC. Time now 2018-Jul-17 17:06 UTC.
Position N 01°18' E 103°20'.
Warning: this ship's position is 39 days out of date.

Length 200 m; draft 13.3 m.

Type: Cargo ship. MMSI: 477476200.

Date/timePositionNaut miles runAvg speedWind from/ knotsBaromVisibWave heightAir tempDewpointWater temp
2018-Jun-08 10:27N 01°18' E 103°20'510.2
2018-Jun-08 09:59N 01°15' E 103°24'510.3
2018-Jun-08 09:28N 01°13' E 103°29'510.6
2018-Jun-08 09:00N 01°12' E 103°34'610.8
2018-Jun-08 08:29N 01°11' E 103°39'510.6
2018-Jun-08 08:00N 01°09' E 103°44'611.6
2018-Jun-08 07:30N 01°11' E 103°49'510.8
2018-Jun-08 07:00N 01°13' E 103°54'5 9.1
2018-Jun-08 06:30N 01°15' E 103°58'1 2.6
2018-Jun-08 05:57N 01°17' E 103°58'0 0.1
2018-Jun-08 05:26N 01°17' E 103°58'0 0.0
2018-Jun-08 04:51N 01°17' E 103°58'0 0.0
2018-Jun-08 04:21N 01°17' E 103°58'0 0.0
2018-Jun-08 03:56N 01°17' E 103°58'0 0.0
2018-Jun-08 03:27N 01°17' E 103°58'0 0.1
2018-Jun-08 02:57N 01°17' E 103°58'0 0.4
2018-Jun-08 02:30N 01°17' E 103°58'0 0.1
2018-Jun-08 01:51N 01°17' E 103°58'0 0.1
2018-Jun-08 01:29N 01°17' E 103°58'0 0.0
2018-Jun-08 00:56N 01°17' E 103°58'0 0.0
2018-Jun-08 00:27N 01°17' E 103°58'0 0.0
2018-Jun-07 23:57N 01°17' E 103°58'0 0.1
2018-Jun-07 23:27N 01°17' E 103°58'0 0.1
2018-Jun-07 22:53N 01°17' E 103°58'0 0.0
2018-Jun-07 22:30N 01°17' E 103°58'0 0.1
2018-Jun-07 21:57N 01°17' E 103°58'0 0.3
2018-Jun-07 21:18N 01°17' E 103°58'0 0.2
2018-Jun-07 20:57N 01°17' E 103°58'1 2.5
2018-Jun-07 20:30N 01°16' E 103°58'2 3.5
2018-Jun-07 20:00N 01°16' E 103°60'4 7.5
2018-Jun-07 19:30N 01°16' E 104°04'5 9.5
2018-Jun-07 19:00N 01°17' E 104°08'510.5
2018-Jun-07 18:30N 01°18' E 104°13'610.5
2018-Jun-07 17:58N 01°19' E 104°19'510.2
2018-Jun-07 17:30N 01°21' E 104°23'5 9.7
2018-Jun-07 17:00N 01°25' E 104°26'811.3
2018-Jun-07 16:19N 01°29' E 104°33'1010.5
2018-Jun-07 15:19N 01°29' E 104°43'811.9
2018-Jun-07 14:41N 01°24' E 104°49'311.9
2018-Jun-07 14:29N 01°22' E 104°51'611.8
2018-Jun-07 13:56N 01°18' E 104°56'511.9
2018-Jun-07 13:28N 01°14' E 104°59'611.9
2018-Jun-07 12:56N 01°09' E 105°04'22412.1
2018-Jun-06 18:30S 01°20' E 107°51'611.9
2018-Jun-06 18:00S 01°24' E 107°55'  
Track history (hours):
 
Tides and Currents Weather Stations Pressure Air Temp Water Temp Dewpoint Dewpoint Depression Visibility Wind Speed Wind Dir Waves Ship Positions

Oslo Venture

Last reported at 2018-Jun-08 10:27 UTC. Time now 2018-Jul-17 17:06 UTC.
Position N 01°18' E 103°20'.
Warning: this ship's position is 39 days out of date.

Length 200 m; draft 13.3 m.

Type: Cargo ship. MMSI: 477476200.

Date/timePositionNaut miles runAvg speedWind from/ knotsBaromVisibWave heightAir tempDewpointWater temp
2018-Jun-08 10:27N 01°18' E 103°20'510.2
2018-Jun-08 09:59N 01°15' E 103°24'510.3
2018-Jun-08 09:28N 01°13' E 103°29'510.6
2018-Jun-08 09:00N 01°12' E 103°34'610.8
2018-Jun-08 08:29N 01°11' E 103°39'510.6
2018-Jun-08 08:00N 01°09' E 103°44'611.6
2018-Jun-08 07:30N 01°11' E 103°49'510.8
2018-Jun-08 07:00N 01°13' E 103°54'5 9.1
2018-Jun-08 06:30N 01°15' E 103°58'1 2.6
2018-Jun-08 05:57N 01°17' E 103°58'0 0.1
2018-Jun-08 05:26N 01°17' E 103°58'0 0.0
2018-Jun-08 04:51N 01°17' E 103°58'0 0.0
2018-Jun-08 04:21N 01°17' E 103°58'0 0.0
2018-Jun-08 03:56N 01°17' E 103°58'0 0.0
2018-Jun-08 03:27N 01°17' E 103°58'0 0.1
2018-Jun-08 02:57N 01°17' E 103°58'0 0.4
2018-Jun-08 02:30N 01°17' E 103°58'0 0.1
2018-Jun-08 01:51N 01°17' E 103°58'0 0.1
2018-Jun-08 01:29N 01°17' E 103°58'0 0.0
2018-Jun-08 00:56N 01°17' E 103°58'0 0.0
2018-Jun-08 00:27N 01°17' E 103°58'0 0.0
2018-Jun-07 23:57N 01°17' E 103°58'0 0.1
2018-Jun-07 23:27N 01°17' E 103°58'0 0.1
2018-Jun-07 22:53N 01°17' E 103°58'0 0.0
2018-Jun-07 22:30N 01°17' E 103°58'0 0.1
2018-Jun-07 21:57N 01°17' E 103°58'0 0.3
2018-Jun-07 21:18N 01°17' E 103°58'0 0.2
2018-Jun-07 20:57N 01°17' E 103°58'1 2.5
2018-Jun-07 20:30N 01°16' E 103°58'2 3.5
2018-Jun-07 20:00N 01°16' E 103°60'4 7.5
2018-Jun-07 19:30N 01°16' E 104°04'5 9.5
2018-Jun-07 19:00N 01°17' E 104°08'510.5
2018-Jun-07 18:30N 01°18' E 104°13'610.5
2018-Jun-07 17:58N 01°19' E 104°19'510.2
2018-Jun-07 17:30N 01°21' E 104°23'5 9.7
2018-Jun-07 17:00N 01°25' E 104°26'811.3
2018-Jun-07 16:19N 01°29' E 104°33'1010.5
2018-Jun-07 15:19N 01°29' E 104°43'811.9
2018-Jun-07 14:41N 01°24' E 104°49'311.9
2018-Jun-07 14:29N 01°22' E 104°51'611.8
2018-Jun-07 13:56N 01°18' E 104°56'511.9
2018-Jun-07 13:28N 01°14' E 104°59'611.9
2018-Jun-07 12:56N 01°09' E 105°04'22412.1
2018-Jun-06 18:30S 01°20' E 107°51'611.9
2018-Jun-06 18:00S 01°24' E 107°55'  

Dump ship's entire track history